^^
Station Historical Data
 
Daily Summary for March 28, 2015 Units:  English    Metric   Both
« Previous Day
Next Day »
Daily Weekly Monthly Yearly Custom
  Current: High: Low: Average:
Temperature: 49.6 °F 60.3 °F 49.6 °F 54.4 °F
Dew Point: 44.0 °F 57.0 °F 44.0 °F 47.9 °F
Humidity: 81% 89% 73% 79%
Wind Speed: 1.0mph 6.0mph 0.0mph 1.6mph
Wind Gust: 4.0mph 10.0mph - -
WindWest - - West
Pressure: 30.08 in 30.08 in 29.94 in -
Precipitation: 0.00 in      
Historical Graphs
 
 
Tabular Data for March 28, 2015
Time Temperature Dew Point Pressure Wind Wind Speed Wind Gust Humidity Rainfall Rate (Hourly) solar Conditions
00:00 60.3 °F 57.0 °F 29.94 in WNW 3.0 mph 7.0 mph 89% 0.00 in 0.0 W/m2 RA
00:10 59.9 °F 56.6 °F 29.95 in West 2.0 mph 6.0 mph 89% 0.00 in 0.0 W/m2 CLR
00:20 59.5 °F 55.6 °F 29.96 in WNW 3.0 mph 10.0 mph 87% 0.00 in 0.0 W/m2 CLR
00:30 59.0 °F 53.5 °F 29.96 in WNW 6.0 mph 9.0 mph 82% 0.00 in 0.0 W/m2 CLR
00:40 58.7 °F 53.2 °F 29.97 in West 2.0 mph 9.0 mph 82% 0.00 in 0.0 W/m2 CLR
00:50 58.2 °F 52.1 °F 29.98 in WNW 5.0 mph 9.0 mph 80% 0.00 in 0.0 W/m2 CLR
01:00 57.8 °F 51.7 °F 29.98 in WNW 3.0 mph 6.0 mph 80% 0.00 in 0.0 W/m2 CLR
01:10 57.4 °F 50.9 °F 29.98 in WNW 3.0 mph 10.0 mph 79% 0.00 in 0.0 W/m2 CLR
01:15 57.2 °F 50.4 °F 29.98 in West 3.0 mph 8.0 mph 78% 0.00 in 0.0 W/m2 CLR
01:20 57.0 °F 49.9 °F 29.98 in WNW 3.0 mph 7.0 mph 77% 0.00 in 0.0 W/m2 CLR
01:30 56.8 °F 49.3 °F 29.99 in West 5.0 mph 6.0 mph 76% 0.00 in 0.0 W/m2 CLR
01:40 56.5 °F 49.0 °F 29.98 in West 2.0 mph 5.0 mph 76% 0.00 in 0.0 W/m2 CLR
01:45 56.3 °F 48.8 °F 29.98 in West 2.0 mph 4.0 mph 76% 0.00 in 0.0 W/m2 CLR
01:50 56.0 °F 48.9 °F 29.98 in West 1.0 mph 3.0 mph 77% 0.00 in 0.0 W/m2 CLR
02:00 55.7 °F 48.9 °F 29.98 in West 2.0 mph 3.0 mph 78% 0.00 in 0.0 W/m2 CLR
02:10 55.3 °F 48.9 °F 29.99 in WSW 1.0 mph 3.0 mph 79% 0.00 in 0.0 W/m2 CLR
02:20 55.1 °F 48.7 °F 29.99 in Calm   2.0 mph 79% 0.00 in 0.0 W/m2 CLR
02:30 54.9 °F 48.8 °F 29.99 in Calm   2.0 mph 80% 0.00 in 0.0 W/m2 CLR
02:40 54.7 °F 49.0 °F 29.99 in WSW 1.0 mph 2.0 mph 81% 0.00 in 0.0 W/m2 CLR
02:50 54.5 °F 48.8 °F 29.99 in Calm   3.0 mph 81% 0.00 in 0.0 W/m2 CLR
03:00 54.5 °F 48.8 °F 29.99 in West 1.0 mph 2.0 mph 81% 0.00 in 0.0 W/m2 CLR
03:10 54.5 °F 48.7 °F 29.99 in West 1.0 mph 3.0 mph 81% 0.00 in 0.0 W/m2 CLR
03:15 54.4 °F 48.7 °F 29.99 in West 1.0 mph 3.0 mph 81% 0.00 in 0.0 W/m2 CLR
03:20 54.4 °F 48.4 °F 29.99 in West 1.0 mph 3.0 mph 80% 0.00 in 0.0 W/m2 CLR
03:30 54.4 °F 48.0 °F 29.99 in West 1.0 mph 3.0 mph 79% 0.00 in 0.0 W/m2 CLR
03:40 54.5 °F 47.8 °F 29.99 in West 2.0 mph 4.0 mph 78% 0.00 in 0.0 W/m2 CLR
03:45 54.6 °F 47.9 °F 30.00 in West 1.0 mph 4.0 mph 78% 0.00 in 0.0 W/m2 CLR
03:50 54.6 °F 47.2 °F 29.99 in WSW 2.0 mph 4.0 mph 76% 0.00 in 0.0 W/m2 CLR
04:00 54.6 °F 46.9 °F 29.99 in West 1.0 mph 3.0 mph 75% 0.00 in 0.0 W/m2 CLR
04:10 54.5 °F 46.0 °F 29.99 in West 2.0 mph 4.0 mph 73% 0.00 in 0.0 W/m2 CLR
04:20 54.4 °F 46.3 °F 30.00 in West 1.0 mph 4.0 mph 74% 0.00 in 0.0 W/m2 CLR
04:30 54.1 °F 46.0 °F 30.00 in West 2.0 mph 4.0 mph 74% 0.00 in 0.0 W/m2 CLR
04:40 53.8 °F 45.7 °F 30.01 in West 2.0 mph 5.0 mph 74% 0.00 in 0.0 W/m2 CLR
04:50 53.7 °F 45.6 °F 30.01 in WNW 2.0 mph 5.0 mph 74% 0.00 in 0.0 W/m2 CLR
05:00 53.5 °F 45.4 °F 30.01 in West 1.0 mph 4.0 mph 74% 0.00 in 0.0 W/m2 CLR
05:10 53.2 °F 45.5 °F 30.01 in West 2.0 mph 5.0 mph 75% 0.00 in 0.0 W/m2 CLR
05:15 53.0 °F 45.3 °F 30.02 in West 1.0 mph 3.0 mph 75% 0.00 in 0.0 W/m2 CLR
05:20 52.8 °F 45.1 °F 30.02 in West 1.0 mph 4.0 mph 75% 0.00 in 0.0 W/m2 CLR
05:30 52.5 °F 45.2 °F 30.02 in West 1.0 mph 2.0 mph 76% 0.00 in 0.0 W/m2 CLR
05:40 52.3 °F 45.3 °F 30.03 in Calm   3.0 mph 77% 0.00 in 0.0 W/m2 CLR
05:45 52.1 °F 45.1 °F 30.03 in Calm   3.0 mph 77% 0.00 in 0.0 W/m2 CLR
05:50 51.9 °F 44.9 °F 30.03 in WSW 1.0 mph 3.0 mph 77% 0.00 in 0.0 W/m2 CLR
06:00 51.6 °F 45.0 °F 30.04 in West 1.0 mph 4.0 mph 78% 0.00 in 0.0 W/m2 CLR
06:10 51.2 °F 44.6 °F 30.04 in Calm   2.0 mph 78% 0.00 in 0.0 W/m2 CLR
06:20 50.9 °F 44.7 °F 30.04 in Calm   2.0 mph 79% 0.00 in 0.0 W/m2 CLR
06:30 50.6 °F 44.7 °F 30.04 in West 1.0 mph 3.0 mph 80% 0.00 in 0.0 W/m2 CLR
06:40 50.4 °F 44.5 °F 30.05 in WSW 1.0 mph 3.0 mph 80% 0.00 in 0.0 W/m2 CLR
06:45 50.3 °F 44.4 °F 30.06 in West 2.0 mph 4.0 mph 80% 0.00 in 0.0 W/m2 CLR
06:50 50.2 °F 44.3 °F 30.06 in West 1.0 mph 3.0 mph 80% 0.00 in 0.0 W/m2 CLR
07:00 50.0 °F 44.1 °F 30.07 in West 1.0 mph 3.0 mph 80% 0.00 in 0.0 W/m2 CLR
07:10 49.8 °F 44.2 °F 30.07 in Calm   3.0 mph 81% 0.00 in 0.0 W/m2 CLR
07:15 49.6 °F 44.0 °F 30.08 in West 1.0 mph 4.0 mph 81% 0.00 in 0.0 W/m2 CLR
Lake Mary, FL, USA
Compliments of Weather Underground